Time;durP1;ratioP1;P1;durP2;ratioP2;P2;SDS_P1;SDS_P2;PMS_P1;PMS_P2;Temp;Humidity;BMP_temperature;BMP_pressure;BME280_temperature;BME280_humidity;BME280_pressure;Samples;Min_cycle;Max_cycle;Signal;HPM_P1;HPM_P2
2021/05/07 03:47:20;;;;;;;8.98;5.72;;;8.40;93.80;;;;;;6047491;23;20373;-93
2021/05/07 03:50:29;;;;;;;6.82;5.40;;;8.40;94.10;;;;;;6103049;23;20021;-94
2021/05/07 03:53:15;;;;;;;;;;;;;;;;;;;;;
2021/05/07 03:59:36;;;;;;;8.00;6.18;;;8.30;94.60;;;;;;6131007;23;20013;-93
2021/05/07 04:02:05;;;;;;;10.13;6.68;;;8.10;95.00;;;;;;6129942;23;20028;-93
2021/05/07 04:04:35;;;;;;;10.20;6.90;;;8.10;95.30;;;;;;6106184;23;20247;-92
2021/05/07 04:07:02;;;;;;;10.02;6.78;;;8.10;95.30;;;;;;6131136;23;20083;-92
2021/05/07 04:09:35;;;;;;;10.38;7.75;;;8.20;95.30;;;;;;6132279;23;20010;-91
2021/05/07 04:12:13;;;;;;;11.90;7.43;;;8.20;95.30;;;;;;6131535;23;20001;-92
2021/05/07 04:14:38;;;;;;;9.63;6.53;;;8.20;95.20;;;;;;6131767;23;20002;-92
2021/05/07 04:17:04;;;;;;;9.43;7.18;;;8.30;95.20;;;;;;6131364;23;20030;-91
2021/05/07 04:19:30;;;;;;;10.63;7.47;;;8.30;95.20;;;;;;6131859;23;20006;-92
2021/05/07 04:21:56;;;;;;;8.93;6.88;;;8.30;95.20;;;;;;6132129;23;20021;-92
2021/05/07 04:24:24;;;;;;;9.27;7.28;;;8.30;95.10;;;;;;6131436;23;20002;-92
2021/05/07 04:26:50;;;;;;;10.45;7.43;;;8.30;95.20;;;;;;6132005;23;20006;-92
2021/05/07 04:29:16;;;;;;;10.40;7.10;;;8.30;95.40;;;;;;6130447;23;20010;-92
2021/05/07 04:31:44;;;;;;;9.10;6.97;;;8.40;95.40;;;;;;6131037;23;20006;-91
2021/05/07 04:34:15;;;;;;;10.52;7.57;;;8.40;95.40;;;;;;6130081;23;20009;-92
2021/05/07 04:36:51;;;;;;;12.95;8.25;;;8.40;95.50;;;;;;6129498;23;20012;-92
2021/05/07 04:39:22;;;;;;;11.32;8.07;;;8.40;95.20;;;;;;6130170;23;20005;-92
2021/05/07 04:41:48;;;;;;;12.77;7.82;;;8.40;95.30;;;;;;6129340;23;20006;-93
2021/05/07 04:44:25;;;;;;;12.18;7.93;;;8.40;95.30;;;;;;6123636;23;20033;-91
2021/05/07 04:47:17;;;;;;;11.40;8.52;;;8.40;95.30;;;;;;6130188;23;20024;-92
2021/05/07 04:49:42;;;;;;;12.25;8.38;;;8.30;95.50;;;;;;6154034;23;20341;-91
2021/05/07 04:52:29;;;;;;;13.43;8.52;;;8.30;95.70;;;;;;6129511;23;20033;-92
2021/05/07 04:55:48;;;;;;;11.43;6.97;;;8.20;95.70;;;;;;6128393;23;20027;-92
2021/05/07 04:58:16;;;;;;;8.70;6.78;;;8.20;95.50;;;;;;6105342;23;20002;-92
2021/05/07 05:00:42;;;;;;;10.77;7.03;;;8.20;95.50;;;;;;6129873;23;20026;-92
2021/05/07 05:03:07;;;;;;;9.68;6.22;;;8.20;95.60;;;;;;6130267;23;20006;-91
2021/05/07 05:05:33;;;;;;;10.55;6.88;;;8.10;95.40;;;;;;6131276;23;20086;-91
2021/05/07 05:08:03;;;;;;;6.95;5.10;;;8.10;95.60;;;;;;6129565;23;20029;-93
2021/05/07 05:10:29;;;;;;;8.25;5.85;;;8.00;95.60;;;;;;6132564;23;20017;-92
2021/05/07 05:13:02;;;;;;;12.98;6.07;;;8.00;95.80;;;;;;6132274;23;20009;-92
2021/05/07 05:15:28;;;;;;;6.93;4.97;;;7.90;95.90;;;;;;6127995;23;20005;-92
2021/05/07 05:18:01;;;;;;;5.68;3.70;;;7.90;95.90;;;;;;6130785;23;20006;-92
2021/05/07 05:23:47;;;;;;;2.10;1.85;;;7.80;94.90;;;;;;6084646;23;20040;-92
2021/05/07 05:26:23;;;;;;;2.67;1.95;;;7.70;94.60;;;;;;6132464;23;20342;-92
2021/05/07 05:29:01;;;;;;;;;;;;;;;;;;;;;
2021/05/07 05:31:35;;;;;;;2.83;2.13;;;7.60;94.70;;;;;;6132602;23;20032;-92
2021/05/07 05:34:00;;;;;;;3.70;1.85;;;7.50;94.90;;;;;;6131938;23;20002;-92
2021/05/07 05:36:28;;;;;;;2.35;1.95;;;7.50;94.90;;;;;;6132255;23;20056;-92
2021/05/07 05:39:04;;;;;;;3.78;2.05;;;7.60;94.70;;;;;;6131366;23;20397;-92
2021/05/07 05:41:35;;;;;;;1.88;1.67;;;7.60;94.90;;;;;;6130251;23;20016;-92
2021/05/07 05:44:09;;;;;;;3.40;2.65;;;7.60;94.90;;;;;;6131780;23;20029;-89
2021/05/07 05:46:38;;;;;;;1.90;1.60;;;7.60;95.30;;;;;;6128301;23;20031;-91
2021/05/07 05:49:05;;;;;;;2.17;1.60;;;7.80;94.90;;;;;;6131974;23;20037;-92
2021/05/07 05:55:06;;;;;;;2.47;1.60;;;7.90;94.20;;;;;;6099200;23;20037;-90
2021/05/07 05:58:06;;;;;;;2.10;1.67;;;8.10;94.00;;;;;;6130971;23;20088;-92
2021/05/07 06:00:32;;;;;;;2.13;1.60;;;8.20;94.60;;;;;;6131846;23;20368;-92
2021/05/07 06:03:07;;;;;;;2.05;1.80;;;8.30;94.10;;;;;;6131816;23;20100;-91
2021/05/07 06:05:33;;;;;;;2.47;1.73;;;8.40;92.50;;;;;;6130948;23;20017;-92
2021/05/07 06:07:58;;;;;;;1.67;1.38;;;8.50;93.60;;;;;;6132052;23;20005;-92
2021/05/07 06:10:24;;;;;;;1.92;1.52;;;8.70;93.40;;;;;;6132886;23;20006;-91
2021/05/07 06:12:50;;;;;;;1.75;1.20;;;8.70;92.40;;;;;;6132204;23;20006;-92
2021/05/07 06:15:18;;;;;;;2.55;1.85;;;8.70;92.80;;;;;;6156368;23;20018;-92
2021/05/07 06:17:44;;;;;;;1.75;1.33;;;8.70;93.00;;;;;;6131461;23;20009;-91
2021/05/07 06:20:12;;;;;;;4.35;2.13;;;8.70;92.70;;;;;;6131540;23;20021;-93
2021/05/07 06:22:38;;;;;;;2.20;1.90;;;8.70;92.90;;;;;;6132026;23;20033;-92
2021/05/07 06:25:42;;;;;;;2.60;2.30;;;8.70;92.30;;;;;;6131944;23;20247;-92
2021/05/07 06:28:22;;;;;;;;;;;8.80;92.30;;;;;;6131334;23;20045;-92
2021/05/07 06:30:58;;;;;;;;;;;;;;;;;;;;;
2021/05/07 06:33:26;;;;;;;3.95;2.78;;;8.80;92.30;;;;;;6132919;23;20032;-93
2021/05/07 06:36:06;;;;;;;3.50;2.90;;;8.80;92.50;;;;;;6131706;23;20006;-92
2021/05/07 06:38:35;;;;;;;3.38;2.95;;;8.80;92.40;;;;;;6130800;23;20334;-92
2021/05/07 06:41:29;;;;;;;4.32;3.10;;;8.80;92.00;;;;;;6131798;23;20008;-92
2021/05/07 06:43:57;;;;;;;4.80;3.15;;;8.90;92.10;;;;;;6131392;23;20342;-92
2021/05/07 06:46:22;;;;;;;3.83;2.65;;;8.80;92.00;;;;;;6132251;23;20036;-91
2021/05/07 06:48:49;;;;;;;2.85;2.55;;;8.70;91.80;;;;;;6132841;23;20006;-92
2021/05/07 06:51:15;;;;;;;3.58;2.40;;;8.80;92.20;;;;;;6131463;23;20346;-92
2021/05/07 06:53:42;;;;;;;2.83;2.45;;;8.80;91.70;;;;;;6131178;23;20009;-93
2021/05/07 06:56:31;;;;;;;7.22;2.50;;;8.80;91.50;;;;;;6131811;23;20006;-93
2021/05/07 06:58:57;;;;;;;3.42;2.47;;;8.80;91.30;;;;;;6131788;23;20088;-92
2021/05/07 07:01:26;;;;;;;2.28;2.08;;;8.70;91.70;;;;;;6131196;23;20327;-92
2021/05/07 07:04:01;;;;;;;4.25;2.38;;;8.60;91.70;;;;;;6131751;23;20036;-91
2021/05/07 07:06:28;;;;;;;2.35;1.73;;;8.50;91.20;;;;;;6131662;23;20030;-92
2021/05/07 07:09:04;;;;;;;1.92;1.73;;;8.50;91.00;;;;;;6131463;23;20013;-92
2021/05/07 07:11:30;;;;;;;1.95;1.75;;;8.40;90.50;;;;;;6130989;23;20064;-93
2021/05/07 07:14:10;;;;;;;1.33;1.13;;;8.40;90.40;;;;;;6131881;23;20010;-93
2021/05/07 07:16:47;;;;;;;1.38;1.13;;;8.40;90.10;;;;;;6131469;23;20014;-92
2021/05/07 07:19:31;;;;;;;1.30;0.70;;;8.30;90.20;;;;;;6131937;23;20025;-92
2021/05/07 07:22:46;;;;;;;0.73;0.70;;;8.30;89.60;;;;;;6131105;23;20012;-93
2021/05/07 07:25:20;;;;;;;1.27;0.77;;;8.30;89.40;;;;;;6126857;23;20073;-92
2021/05/07 07:27:50;;;;;;;0.95;0.80;;;8.40;89.60;;;;;;6131392;23;20012;-93
2021/05/07 07:30:16;;;;;;;0.98;0.80;;;8.30;88.60;;;;;;6131635;23;20013;-89
2021/05/07 07:32:42;;;;;;;0.63;0.60;;;8.20;88.60;;;;;;6130780;23;20034;-90
2021/05/07 07:35:18;;;;;;;0.90;0.90;;;8.10;89.00;;;;;;6130846;23;20013;-93
2021/05/07 07:38:41;;;;;;;2.22;1.27;;;8.00;89.30;;;;;;6130931;23;20036;-93
2021/05/07 07:41:13;;;;;;;1.35;1.20;;;8.00;90.10;;;;;;6129828;23;20006;-93
2021/05/07 07:43:43;;;;;;;1.38;0.93;;;8.00;90.00;;;;;;6131731;23;20005;-93
2021/05/07 07:46:16;;;;;;;1.48;0.95;;;8.00;89.00;;;;;;6131170;23;20026;-94
2021/05/07 07:48:41;;;;;;;0.70;0.70;;;8.00;87.60;;;;;;6131811;23;20042;-93
2021/05/07 07:51:13;;;;;;;1.10;0.80;;;8.00;88.40;;;;;;6131094;23;20259;-93
2021/05/07 07:53:50;;;;;;;0.88;0.80;;;7.90;88.40;;;;;;6131297;23;20002;-93
2021/05/07 07:56:16;;;;;;;1.00;0.90;;;7.90;88.40;;;;;;6131065;23;20016;-93
2021/05/07 07:58:41;;;;;;;0.60;0.60;;;8.00;89.50;;;;;;6131621;23;20038;-92
2021/05/07 08:01:10;;;;;;;1.98;1.00;;;8.10;89.50;;;;;;6131870;23;20069;-93
2021/05/07 08:03:48;;;;;;;1.13;0.82;;;8.20;88.90;;;;;;6130520;23;20183;-94
2021/05/07 08:06:19;;;;;;;1.98;1.10;;;8.30;86.80;;;;;;6131927;23;20030;-92
2021/05/07 08:08:45;;;;;;;1.10;1.00;;;8.30;88.30;;;;;;6131292;23;20010;-93
2021/05/07 08:11:10;;;;;;;0.80;0.80;;;8.40;88.30;;;;;;6131559;23;20033;-93
2021/05/07 08:13:36;;;;;;;0.68;0.68;;;8.40;87.00;;;;;;6130678;23;20135;-93
2021/05/07 08:16:11;;;;;;;1.65;0.95;;;8.40;86.60;;;;;;6131275;23;20073;-94
2021/05/07 08:18:37;;;;;;;2.13;1.52;;;8.50;87.40;;;;;;6131228;23;20345;-92
2021/05/07 08:21:02;;;;;;;13.93;2.45;;;8.60;86.50;;;;;;6131121;23;20077;-93
2021/05/07 08:23:28;;;;;;;1.27;0.80;;;8.60;87.10;;;;;;6131667;23;20013;-93
2021/05/07 08:25:53;;;;;;;0.85;0.70;;;8.60;86.10;;;;;;6131460;23;20009;-93
2021/05/07 08:28:19;;;;;;;1.08;0.90;;;8.70;86.00;;;;;;6131579;23;20092;-90
2021/05/07 08:30:45;;;;;;;0.85;0.77;;;8.60;86.30;;;;;;6134503;23;20021;-93
2021/05/07 08:33:25;;;;;;;0.93;0.88;;;8.50;86.90;;;;;;6131579;23;20002;-94
2021/05/07 08:35:51;;;;;;;1.25;1.10;;;8.40;87.60;;;;;;6131561;23;20010;-93
2021/05/07 08:38:21;;;;;;;1.65;1.05;;;8.30;87.30;;;;;;6131090;23;20092;-93
2021/05/07 08:40:47;;;;;;;0.82;0.82;;;8.20;87.80;;;;;;6131505;23;20017;-93
2021/05/07 08:43:16;;;;;;;1.40;1.17;;;8.10;88.90;;;;;;6131050;23;20061;-93
2021/05/07 08:45:54;;;;;;;1.25;1.15;;;8.10;88.50;;;;;;6131379;23;20006;-93
2021/05/07 08:48:20;;;;;;;1.38;1.00;;;8.00;88.10;;;;;;6130947;23;20010;-94
2021/05/07 08:50:58;;;;;;;2.05;1.15;;;8.00;89.90;;;;;;6130865;23;20009;-92
2021/05/07 08:53:25;;;;;;;1.02;0.93;;;8.00;89.30;;;;;;6129455;23;20069;-93
2021/05/07 08:55:51;;;;;;;1.33;1.05;;;8.10;89.00;;;;;;6130487;23;20024;-93
2021/05/07 08:58:35;;;;;;;1.15;0.90;;;8.20;88.70;;;;;;6131174;23;20010;-93
2021/05/07 09:01:02;;;;;;;1.20;0.95;;;8.30;88.20;;;;;;6130630;23;20080;-94
2021/05/07 09:03:39;;;;;;;1.13;1.02;;;8.30;87.70;;;;;;6130672;23;20006;-93
2021/05/07 09:06:21;;;;;;;1.20;1.10;;;8.40;87.70;;;;;;6130050;23;20006;-92
2021/05/07 09:08:50;;;;;;;0.60;0.60;;;8.40;87.50;;;;;;6131164;23;20053;-93
2021/05/07 09:11:21;;;;;;;3.90;1.02;;;8.40;87.20;;;;;;6130493;23;20263;-93
2021/05/07 09:13:47;;;;;;;1.95;1.20;;;8.30;88.00;;;;;;6130633;23;20033;-93
2021/05/07 09:16:16;;;;;;;0.88;0.70;;;8.40;89.00;;;;;;6130776;23;20002;-92
2021/05/07 09:18:58;;;;;;;1.42;1.20;;;8.50;88.30;;;;;;6131048;23;20006;-93
2021/05/07 09:21:27;;;;;;;1.05;0.90;;;8.60;86.50;;;;;;6131034;23;20028;-93
2021/05/07 09:23:55;;;;;;;1.10;1.00;;;8.60;86.40;;;;;;6130822;23;20156;-93
2021/05/07 09:26:21;;;;;;;1.77;1.40;;;8.50;86.30;;;;;;6131165;23;20005;-93
2021/05/07 09:28:53;;;;;;;1.83;1.40;;;8.60;86.80;;;;;;6130666;23;20077;-93
2021/05/07 09:31:19;;;;;;;2.72;1.65;;;8.60;85.30;;;;;;6130962;23;20014;-92
2021/05/07 09:33:48;;;;;;;1.90;1.70;;;8.60;85.40;;;;;;6131206;23;20356;-92
2021/05/07 09:36:32;;;;;;;;;;;;;;;;;;;;;
2021/05/07 09:39:02;;;;;;;2.58;2.05;;;9.00;85.00;;;;;;6131866;23;20017;-93
2021/05/07 09:41:46;;;;;;;2.53;1.90;;;9.10;83.40;;;;;;6130623;23;20014;-94
2021/05/07 09:44:19;;;;;;;3.95;2.55;;;9.10;82.80;;;;;;6130986;23;20238;-92
2021/05/07 09:46:45;;;;;;;3.45;2.03;;;9.10;82.00;;;;;;6130809;23;20010;-91
2021/05/07 09:49:36;;;;;;;2.20;2.00;;;9.00;82.20;;;;;;6131234;23;20010;-94
2021/05/07 09:52:07;;;;;;;2.53;2.28;;;9.00;82.30;;;;;;6130466;23;20002;-94
2021/05/07 09:54:34;;;;;;;3.30;2.80;;;8.90;81.20;;;;;;6131227;23;20041;-92
2021/05/07 09:57:01;;;;;;;3.40;2.33;;;8.90;82.40;;;;;;6132680;23;20002;-94
2021/05/07 09:59:28;;;;;;;7.72;2.45;;;9.00;83.60;;;;;;6132470;23;20010;-93
2021/05/07 10:02:00;;;;;;;3.63;2.58;;;9.10;82.40;;;;;;6132798;23;20329;-93
2021/05/07 10:04:28;;;;;;;4.82;2.50;;;9.30;83.80;;;;;;6124761;23;20006;-93
2021/05/07 10:07:02;;;;;;;3.67;2.58;;;9.60;84.30;;;;;;6132918;23;20005;-91
2021/05/07 10:10:03;;;;;;;2.63;2.05;;;9.90;80.70;;;;;;6132069;23;20006;-93
2021/05/07 10:12:48;;;;;;;3.33;2.00;;;10.20;79.60;;;;;;6126055;23;20010;-92
2021/05/07 10:17:15;;;;;;;;;;;;;;;;;;;;;
2021/05/07 10:22:00;;;;;;;4.72;2.30;;;11.10;78.00;;;;;;6121437;23;20010;-94
2021/05/07 10:24:58;;;;;;;2.40;2.20;;;11.20;75.00;;;;;;6128463;23;20014;-92
2021/05/07 10:27:52;;;;;;;2.65;1.83;;;11.10;75.40;;;;;;6132021;23;20060;-93
2021/05/07 10:30:25;;;;;;;3.47;2.33;;;11.00;76.10;;;;;;6131967;23;20358;-93
2021/05/07 10:33:37;;;;;;;3.22;2.20;;;10.90;78.10;;;;;;6131693;23;20001;-95
2021/05/07 10:36:04;;;;;;;2.42;2.17;;;10.80;77.10;;;;;;6132399;23;20559;-91
2021/05/07 10:38:30;;;;;;;3.95;2.67;;;10.50;80.30;;;;;;6130871;23;20326;-90
2021/05/07 10:41:10;;;;;;;2.85;2.05;;;10.40;81.20;;;;;;6129314;23;20024;-90
2021/05/07 10:43:45;;;;;;;3.50;2.63;;;10.20;83.20;;;;;;6130195;23;20021;-88
2021/05/07 10:46:21;;;;;;;2.88;2.45;;;10.20;85.50;;;;;;6152595;23;20408;-90
2021/05/07 10:48:58;;;;;;;3.38;2.50;;;10.10;82.80;;;;;;6152367;23;20010;-88
2021/05/07 10:51:25;;;;;;;2.97;2.25;;;10.10;83.30;;;;;;6127563;23;20014;-87
2021/05/07 10:53:52;;;;;;;5.28;2.85;;;10.00;84.40;;;;;;6128655;23;20076;-91
2021/05/07 10:56:22;;;;;;;2.40;2.00;;;10.10;83.40;;;;;;6127505;23;20020;-90
2021/05/07 10:58:53;;;;;;;2.58;2.28;;;10.00;82.60;;;;;;6127816;23;20002;-88
2021/05/07 11:01:26;;;;;;;4.22;2.60;;;10.00;83.80;;;;;;6127671;23;20010;-91
2021/05/07 11:03:58;;;;;;;;;;;9.80;81.90;;;;;;6129206;23;20362;-89
2021/05/07 11:06:29;;;;;;;2.43;1.77;;;9.70;80.50;;;;;;6127784;23;19909;-90
2021/05/07 11:08:54;;;;;;;4.43;2.40;;;9.80;80.60;;;;;;6128157;23;20099;-90
2021/05/07 11:11:20;;;;;;;3.22;2.67;;;9.90;80.70;;;;;;6129800;23;20005;-91
2021/05/07 11:13:45;;;;;;;3.03;2.55;;;10.20;81.60;;;;;;6129234;23;20331;-91
2021/05/07 11:16:11;;;;;;;2.47;2.22;;;10.60;80.00;;;;;;6129344;23;20029;-92
2021/05/07 11:18:36;;;;;;;4.18;1.95;;;11.00;81.60;;;;;;6129120;23;20065;-90
2021/05/07 11:21:12;;;;;;;3.60;2.22;;;11.40;75.30;;;;;;6129936;23;20064;-91
2021/05/07 11:23:38;;;;;;;3.90;2.25;;;11.60;74.50;;;;;;6130309;23;20016;-91
2021/05/07 11:26:05;;;;;;;4.15;2.17;;;11.90;69.80;;;;;;6128804;23;20085;-91
2021/05/07 11:28:40;;;;;;;3.13;2.28;;;11.90;71.70;;;;;;6129540;23;20006;-90
2021/05/07 11:31:05;;;;;;;3.10;2.58;;;12.10;71.50;;;;;;6128999;23;20009;-89
2021/05/07 11:33:31;;;;;;;3.20;2.05;;;12.30;71.40;;;;;;6128715;23;20081;-89
2021/05/07 11:36:13;;;;;;;4.05;1.40;;;12.30;68.20;;;;;;6128599;23;20022;-90
2021/05/07 11:38:40;;;;;;;3.03;1.55;;;12.10;62.10;;;;;;6130275;23;20013;-89
2021/05/07 11:41:41;;;;;;;3.47;1.40;;;11.90;64.60;;;;;;6129147;23;20017;-89
2021/05/07 11:44:08;;;;;;;1.83;1.20;;;11.60;63.40;;;;;;6098130;23;20006;-92
2021/05/07 11:46:33;;;;;;;6.95;1.63;;;11.40;64.30;;;;;;6128833;23;20006;-89
2021/05/07 11:49:00;;;;;;;1.83;0.95;;;11.40;63.90;;;;;;6127408;23;20016;-92
2021/05/07 11:51:25;;;;;;;1.73;0.70;;;11.30;62.30;;;;;;6128686;23;20017;-90
2021/05/07 11:53:56;;;;;;;1.45;0.95;;;11.30;62.20;;;;;;6128032;23;20006;-91
2021/05/07 11:56:23;;;;;;;1.23;1.00;;;11.30;65.50;;;;;;6128723;23;20361;-91
2021/05/07 11:58:50;;;;;;;2.80;1.38;;;11.40;65.80;;;;;;6128974;23;19998;-90
2021/05/07 12:01:17;;;;;;;2.13;1.23;;;11.40;68.40;;;;;;6129585;23;20020;-90
2021/05/07 12:03:43;;;;;;;1.83;1.48;;;11.50;67.30;;;;;;6129051;23;20087;-92
2021/05/07 12:06:15;;;;;;;1.85;1.50;;;11.60;68.60;;;;;;6129852;23;20407;-92
2021/05/07 12:08:41;;;;;;;1.80;1.60;;;11.60;70.70;;;;;;6129957;23;20017;-91
2021/05/07 12:11:11;;;;;;;3.80;1.98;;;11.90;70.10;;;;;;6154255;23;20002;-92
2021/05/07 12:13:36;;;;;;;3.80;1.50;;;12.10;69.60;;;;;;6129477;23;20033;-92
2021/05/07 12:16:07;;;;;;;2.72;1.88;;;12.20;67.20;;;;;;6130693;23;20386;-91
2021/05/07 12:18:35;;;;;;;2.25;1.70;;;12.30;67.10;;;;;;6130261;23;20005;-92
2021/05/07 12:21:04;;;;;;;4.40;2.13;;;12.30;66.60;;;;;;6130591;23;20069;-91
2021/05/07 12:23:42;;;;;;;2.63;1.85;;;12.40;67.90;;;;;;6129956;23;20012;-92
2021/05/07 12:26:08;;;;;;;2.13;1.73;;;12.70;68.60;;;;;;6130703;23;20014;-93
2021/05/07 12:28:34;;;;;;;2.78;1.63;;;13.00;62.80;;;;;;6130505;23;20385;-90
2021/05/07 12:31:01;;;;;;;2.67;1.75;;;13.00;61.80;;;;;;6129484;23;20482;-90
2021/05/07 12:33:28;;;;;;;2.55;2.00;;;12.90;64.00;;;;;;6130303;23;20084;-91
2021/05/07 12:35:59;;;;;;;2.63;1.98;;;12.90;64.20;;;;;;6130443;23;20077;-91
2021/05/07 12:38:39;;;;;;;2.10;1.40;;;12.90;62.50;;;;;;6130623;23;20013;-92
2021/05/07 12:41:07;;;;;;;2.00;1.20;;;13.00;60.30;;;;;;6130142;23;20096;-92
2021/05/07 12:43:35;;;;;;;1.83;1.23;;;13.10;58.60;;;;;;6130527;23;20006;-93
2021/05/07 12:46:01;;;;;;;1.83;1.30;;;13.20;59.30;;;;;;6130572;23;20009;-91
2021/05/07 12:48:27;;;;;;;2.28;1.30;;;13.30;60.10;;;;;;6129165;23;20064;-92
2021/05/07 12:50:52;;;;;;;4.70;1.60;;;13.40;58.20;;;;;;6129864;23;20041;-91
2021/05/07 12:53:20;;;;;;;1.92;1.42;;;13.30;60.00;;;;;;6129556;23;20013;-91
2021/05/07 12:55:46;;;;;;;1.73;1.30;;;13.30;59.50;;;;;;6130818;23;20141;-92
2021/05/07 12:58:13;;;;;;;2.47;1.50;;;13.30;59.40;;;;;;6130134;23;20002;-93
2021/05/07 13:00:41;;;;;;;3.00;1.70;;;13.30;59.50;;;;;;6130132;23;20006;-92
2021/05/07 13:03:07;;;;;;;3.28;1.70;;;13.40;60.00;;;;;;6129921;23;20026;-93
2021/05/07 13:05:34;;;;;;;2.63;2.05;;;13.50;59.40;;;;;;6130605;23;20002;-91
2021/05/07 13:07:59;;;;;;;3.25;1.60;;;13.70;57.60;;;;;;6130096;23;20010;-93
2021/05/07 13:10:26;;;;;;;2.53;1.40;;;13.70;56.70;;;;;;6129769;23;20443;-92
2021/05/07 13:12:53;;;;;;;2.33;1.63;;;13.80;56.00;;;;;;6129367;23;20006;-92
2021/05/07 13:15:18;;;;;;;4.03;2.13;;;13.70;55.70;;;;;;6129451;23;20006;-93
2021/05/07 13:17:44;;;;;;;2.63;1.63;;;13.50;58.80;;;;;;6130987;23;20002;-93
2021/05/07 13:20:13;;;;;;;2.72;2.47;;;13.30;56.80;;;;;;6131082;23;20005;-94
2021/05/07 13:22:39;;;;;;;2.00;1.80;;;13.10;56.20;;;;;;6129535;23;20089;-89
2021/05/07 13:25:05;;;;;;;4.38;3.85;;;13.10;60.00;;;;;;6130545;23;20283;-92
2021/05/07 13:27:30;;;;;;;7.05;3.08;;;13.30;59.10;;;;;;6129768;23;20030;-92
2021/05/07 13:29:56;;;;;;;3.80;2.10;;;13.50;61.10;;;;;;6130800;23;20026;-91
2021/05/07 13:32:22;;;;;;;2.35;1.88;;;13.60;57.20;;;;;;6132110;23;20428;-93
2021/05/07 13:34:51;;;;;;;4.18;2.25;;;13.70;57.20;;;;;;6131686;23;20008;-92
2021/05/07 13:37:20;;;;;;;2.45;1.58;;;13.70;56.30;;;;;;6132567;23;20006;-91
2021/05/07 13:39:45;;;;;;;2.00;1.60;;;13.70;56.90;;;;;;6132895;23;20002;-92
2021/05/07 13:42:25;;;;;;;2.08;1.58;;;13.50;56.30;;;;;;6133478;23;20140;-93
2021/05/07 13:44:51;;;;;;;2.67;1.67;;;13.40;55.70;;;;;;6132156;23;20002;-92
2021/05/07 13:47:16;;;;;;;3.05;1.42;;;13.30;54.90;;;;;;6131853;23;20032;-89
2021/05/07 13:50:24;;;;;;;1.98;1.50;;;13.10;56.90;;;;;;6132274;23;20009;-94
2021/05/07 13:52:54;;;;;;;3.65;1.60;;;12.80;57.50;;;;;;6132791;23;20045;-93
2021/05/07 13:55:19;;;;;;;3.25;1.70;;;12.40;61.50;;;;;;6133165;23;20014;-90
2021/05/07 13:57:45;;;;;;;1.88;1.63;;;11.80;69.50;;;;;;6132631;23;20040;-92
2021/05/07 14:00:11;;;;;;;3.45;2.15;;;10.90;73.60;;;;;;6131920;23;20021;-89
2021/05/07 14:02:38;;;;;;;2.97;2.08;;;10.30;78.10;;;;;;6132408;23;20017;-89
2021/05/07 14:05:05;;;;;;;3.10;2.25;;;9.80;82.30;;;;;;6131470;23;20010;-90
2021/05/07 14:07:31;;;;;;;2.05;1.88;;;9.40;84.90;;;;;;6131562;23;20009;-88
2021/05/07 14:09:56;;;;;;;3.20;2.05;;;9.10;87.10;;;;;;6131811;23;20033;-89
2021/05/07 14:12:22;;;;;;;1.90;1.60;;;8.90;88.10;;;;;;6132596;23;20006;-92
2021/05/07 14:14:47;;;;;;;3.35;1.70;;;8.70;88.40;;;;;;6131976;23;20070;-88
2021/05/07 14:17:14;;;;;;;5.82;2.42;;;8.60;88.50;;;;;;6129104;23;20006;-89
2021/05/07 14:19:40;;;;;;;2.45;1.98;;;8.60;90.60;;;;;;6130590;23;20299;-87
2021/05/07 14:22:07;;;;;;;2.35;2.03;;;8.80;91.20;;;;;;6105076;23;20018;-88
2021/05/07 14:24:32;;;;;;;2.03;1.63;;;9.00;90.70;;;;;;6129411;23;20009;-89
2021/05/07 14:26:58;;;;;;;2.85;1.85;;;9.30;89.60;;;;;;6153055;23;20091;-89
2021/05/07 14:29:23;;;;;;;2.22;1.92;;;9.60;87.10;;;;;;6129430;23;20009;-89
2021/05/07 14:31:49;;;;;;;2.03;1.80;;;10.00;89.60;;;;;;6128532;23;20068;-89
2021/05/07 14:34:15;;;;;;;2.92;1.90;;;10.40;90.80;;;;;;6128357;23;20029;-89
2021/05/07 14:36:41;;;;;;;3.70;1.65;;;10.70;88.20;;;;;;6128997;23;20022;-89
2021/05/07 14:39:07;;;;;;;2.13;1.70;;;11.10;83.30;;;;;;6127038;23;20076;-89
2021/05/07 14:41:33;;;;;;;2.08;1.65;;;11.40;82.20;;;;;;6126462;23;20247;-90
2021/05/07 14:43:58;;;;;;;2.08;1.88;;;11.60;81.20;;;;;;6127322;23;20040;-88
2021/05/07 14:46:24;;;;;;;3.38;1.75;;;11.80;81.30;;;;;;6128837;23;20034;-88
2021/05/07 14:48:49;;;;;;;2.28;1.73;;;12.00;77.20;;;;;;6128303;23;20080;-90
2021/05/07 14:51:15;;;;;;;2.13;1.60;;;12.10;74.30;;;;;;6129879;23;20057;-90
2021/05/07 14:53:41;;;;;;;1.58;1.45;;;12.20;76.50;;;;;;6128772;23;20040;-89
2021/05/07 14:56:07;;;;;;;1.98;1.60;;;12.40;76.60;;;;;;6130156;23;20216;-89
2021/05/07 14:58:34;;;;;;;2.80;1.60;;;12.30;72.10;;;;;;6152803;23;20334;-89
2021/05/07 15:01:00;;;;;;;2.08;1.35;;;12.20;71.10;;;;;;6129775;23;20285;-89
2021/05/07 15:03:25;;;;;;;1.65;1.40;;;11.90;71.70;;;;;;6129849;23;20073;-90
2021/05/07 15:05:53;;;;;;;2.90;1.60;;;11.70;74.00;;;;;;6129108;23;20017;-89
2021/05/07 15:08:21;;;;;;;3.38;1.20;;;11.60;71.90;;;;;;6154646;23;20010;-88
2021/05/07 15:10:47;;;;;;;1.60;1.15;;;11.60;72.50;;;;;;6153173;23;20018;-89
2021/05/07 15:13:13;;;;;;;1.75;1.30;;;11.60;73.20;;;;;;6152968;23;20002;-89
2021/05/07 15:15:39;;;;;;;2.72;1.10;;;11.60;72.00;;;;;;6128494;23;20040;-89
2021/05/07 15:18:04;;;;;;;1.98;1.40;;;11.80;69.00;;;;;;6152543;23;20010;-89
2021/05/07 15:20:30;;;;;;;1.70;1.20;;;11.90;69.30;;;;;;6129306;23;20144;-89
2021/05/07 15:22:57;;;;;;;2.25;1.17;;;12.10;71.50;;;;;;6130119;23;20255;-89
2021/05/07 15:25:22;;;;;;;2.30;1.00;;;12.30;66.10;;;;;;6129133;23;20365;-90
2021/05/07 15:27:48;;;;;;;1.63;0.98;;;12.50;64.50;;;;;;6127289;23;20013;-89
2021/05/07 15:30:16;;;;;;;1.17;0.80;;;12.70;67.50;;;;;;6128143;23;20010;-88
2021/05/07 15:32:42;;;;;;;1.15;0.73;;;12.90;63.20;;;;;;6127864;23;20539;-88
2021/05/07 15:35:08;;;;;;;1.48;0.70;;;13.10;63.70;;;;;;6127820;23;20010;-89
2021/05/07 15:37:35;;;;;;;2.22;1.10;;;13.20;61.00;;;;;;6126985;23;20002;-88
2021/05/07 15:40:05;;;;;;;1.25;0.88;;;13.30;60.10;;;;;;6128021;23;20013;-89
2021/05/07 15:42:31;;;;;;;1.58;1.27;;;13.40;59.80;;;;;;6127684;23;20006;-89
2021/05/07 15:44:56;;;;;;;1.13;0.90;;;13.20;59.30;;;;;;6127536;23;20006;-88
2021/05/07 15:47:22;;;;;;;1.52;0.93;;;13.00;59.70;;;;;;6128891;23;20017;-89
2021/05/07 15:49:48;;;;;;;1.33;0.85;;;12.80;60.90;;;;;;6128916;23;20006;-90
2021/05/07 15:52:13;;;;;;;1.85;1.05;;;12.70;60.30;;;;;;6130210;23;20006;-90
2021/05/07 15:54:39;;;;;;;1.65;1.15;;;12.50;63.40;;;;;;6128410;23;20409;-90
2021/05/07 15:57:05;;;;;;;6.03;1.30;;;12.30;68.90;;;;;;6129145;23;20306;-91
2021/05/07 15:59:33;;;;;;;1.48;1.25;;;12.30;66.60;;;;;;6130195;23;20077;-89
2021/05/07 16:01:58;;;;;;;1.55;1.10;;;12.20;67.20;;;;;;6153623;23;20010;-88
2021/05/07 16:04:24;;;;;;;5.18;0.98;;;12.20;67.40;;;;;;6131812;23;20016;-90
2021/05/07 16:06:49;;;;;;;2.83;1.00;;;12.40;66.10;;;;;;6128701;23;20363;-89
2021/05/07 16:09:15;;;;;;;1.48;0.90;;;12.40;66.20;;;;;;6156953;23;20006;-90
2021/05/07 16:11:41;;;;;;;2.03;0.93;;;12.50;64.30;;;;;;6129432;23;20001;-89
2021/05/07 16:14:07;;;;;;;1.50;0.95;;;12.50;63.90;;;;;;6128933;23;20006;-89
2021/05/07 16:16:34;;;;;;;1.55;0.93;;;12.60;63.40;;;;;;6129060;23;19998;-89
2021/05/07 16:19:00;;;;;;;1.83;1.00;;;12.60;63.20;;;;;;6129814;23;20005;-89
2021/05/07 16:21:26;;;;;;;4.53;0.90;;;12.60;62.70;;;;;;6154108;23;20351;-89
2021/05/07 16:23:51;;;;;;;2.40;0.80;;;12.60;63.80;;;;;;6129524;23;20016;-90
2021/05/07 16:26:20;;;;;;;0.90;0.80;;;12.50;62.00;;;;;;6129611;23;20009;-90
2021/05/07 16:28:46;;;;;;;1.25;0.93;;;12.40;61.40;;;;;;6128671;23;20049;-89
2021/05/07 16:31:11;;;;;;;1.23;0.90;;;12.30;62.60;;;;;;6128350;23;20006;-90
2021/05/07 16:33:37;;;;;;;1.77;0.82;;;12.30;64.00;;;;;;6128737;23;20014;-87
2021/05/07 16:36:04;;;;;;;1.58;1.30;;;12.20;62.00;;;;;;6129758;23;20033;-90
2021/05/07 16:41:01;;;;;;;1.73;1.20;;;12.30;63.60;;;;;;6140903;23;20017;-91
2021/05/07 16:43:28;;;;;;;0.95;0.80;;;12.40;62.10;;;;;;6129694;23;20021;-90
2021/05/07 16:45:53;;;;;;;2.03;1.20;;;12.40;62.90;;;;;;6128398;23;20091;-90
2021/05/07 16:48:19;;;;;;;1.25;0.90;;;12.40;63.70;;;;;;6130125;23;20344;-90
2021/05/07 16:50:45;;;;;;;1.38;0.77;;;12.50;62.40;;;;;;6128662;23;20010;-90
2021/05/07 16:53:10;;;;;;;1.10;0.95;;;12.50;61.40;;;;;;6129061;23;20008;-90
2021/05/07 16:55:36;;;;;;;1.48;0.80;;;12.40;61.40;;;;;;6129505;23;20010;-90
2021/05/07 16:58:02;;;;;;;1.10;1.00;;;12.40;62.30;;;;;;6154049;23;20006;-91
2021/05/07 17:00:28;;;;;;;2.20;1.05;;;12.40;61.40;;;;;;6132214;23;20421;-90
2021/05/07 17:02:53;;;;;;;1.45;0.88;;;12.60;63.60;;;;;;6131231;23;20017;-91
2021/05/07 17:05:19;;;;;;;1.00;0.90;;;12.60;61.40;;;;;;6130761;23;20027;-91
2021/05/07 17:07:45;;;;;;;0.80;0.70;;;12.50;60.40;;;;;;6130423;23;20005;-92
2021/05/07 17:10:11;;;;;;;2.83;0.65;;;12.40;60.80;;;;;;6130809;23;20010;-91
2021/05/07 17:12:36;;;;;;;1.27;0.75;;;12.30;62.60;;;;;;6130491;23;20006;-91
2021/05/07 17:15:02;;;;;;;3.60;0.80;;;12.10;63.10;;;;;;6130372;23;20009;-92
2021/05/07 17:17:28;;;;;;;1.67;1.08;;;12.00;64.90;;;;;;6130259;23;20029;-91